Time;durP1;ratioP1;P1;durP2;ratioP2;P2;SDS_P1;SDS_P2;PMS_P1;PMS_P2;Temp;Humidity;BMP_temperature;BMP_pressure;BME280_temperature;BME280_humidity;BME280_pressure;Samples;Min_cycle;Max_cycle;Signal;HPM_P1;HPM_P2
2021/10/07 00:00:40;;;;;;;6.88;1.70;;;;;;;;;;4929108;29;20065;-75
2021/10/07 00:03:06;;;;;;;5.13;1.33;;;;;;;;;;4953315;29;20043;-75
2021/10/07 00:05:32;;;;;;;4.65;1.65;;;;;;;;;;4960567;28;20055;-75
2021/10/07 00:07:58;;;;;;;4.68;1.60;;;;;;;;;;4940243;29;20043;-74
2021/10/07 00:10:24;;;;;;;4.35;1.13;;;;;;;;;;4939696;29;20706;-75
2021/10/07 00:13:11;;;;;;;10.13;1.80;;;;;;;;;;4943745;29;20086;-75
2021/10/07 00:15:42;;;;;;;5.28;2.03;;;;;;;;;;4926697;29;20517;-74
2021/10/07 00:18:08;;;;;;;6.80;1.67;;;;;;;;;;4942187;29;20060;-75
2021/10/07 00:20:42;;;;;;;6.40;1.98;;;;;;;;;;4940667;29;20596;-75
2021/10/07 00:23:18;;;;;;;7.50;1.58;;;;;;;;;;4951535;29;20046;-75
2021/10/07 00:25:47;;;;;;;11.38;2.50;;;;;;;;;;4931923;29;20050;-75
2021/10/07 00:28:16;;;;;;;7.63;1.80;;;;;;;;;;4933893;29;20052;-75
2021/10/07 00:30:45;;;;;;;6.35;1.70;;;;;;;;;;4941877;29;20063;-75
2021/10/07 00:33:41;;;;;;;6.55;2.00;;;;;;;;;;4950755;28;20050;-75
2021/10/07 00:36:25;;;;;;;4.68;1.73;;;;;;;;;;4949640;29;20043;-74
2021/10/07 00:39:15;;;;;;;9.77;2.25;;;;;;;;;;4963402;28;20067;-75
2021/10/07 00:41:58;;;;;;;8.38;1.40;;;;;;;;;;4951359;29;20042;-75
2021/10/07 00:44:39;;;;;;;4.57;1.00;;;;;;;;;;4950896;28;20039;-75
2021/10/07 00:47:05;;;;;;;3.70;1.27;;;;;;;;;;4936876;29;20483;-75
2021/10/07 00:49:33;;;;;;;5.18;1.10;;;;;;;;;;4947155;28;20063;-75
2021/10/07 00:52:00;;;;;;;3.20;1.38;;;;;;;;;;4940565;29;20039;-74
2021/10/07 00:54:26;;;;;;;3.65;1.30;;;;;;;;;;4941147;28;20485;-75
2021/10/07 00:56:53;;;;;;;4.22;1.00;;;;;;;;;;4947641;29;20039;-74
2021/10/07 00:59:19;;;;;;;3.70;1.10;;;;;;;;;;4946393;29;20070;-75
2021/10/07 01:01:46;;;;;;;3.22;1.25;;;;;;;;;;4934697;29;20039;-75
2021/10/07 01:04:12;;;;;;;3.10;1.10;;;;;;;;;;4948864;28;20062;-74
2021/10/07 01:06:42;;;;;;;4.45;0.98;;;;;;;;;;4955042;28;20074;-75
2021/10/07 01:09:08;;;;;;;5.05;1.40;;;;;;;;;;4952126;29;20082;-75
2021/10/07 01:11:35;;;;;;;5.88;1.35;;;;;;;;;;4947441;28;20051;-74
2021/10/07 01:14:01;;;;;;;4.38;1.40;;;;;;;;;;4941388;29;20047;-75
2021/10/07 01:16:27;;;;;;;6.00;1.00;;;;;;;;;;4933598;29;20039;-75
2021/10/07 01:18:53;;;;;;;6.53;1.50;;;;;;;;;;4950388;29;20051;-75
2021/10/07 01:21:20;;;;;;;8.77;2.33;;;;;;;;;;4951062;28;20042;-75
2021/10/07 01:23:46;;;;;;;9.95;2.60;;;;;;;;;;4940464;29;20546;-74
2021/10/07 01:26:13;;;;;;;10.02;3.70;;;;;;;;;;4934871;29;20043;-74
2021/10/07 01:28:41;;;;;;;9.13;2.47;;;;;;;;;;4954112;28;20142;-74
2021/10/07 01:31:07;;;;;;;11.30;2.67;;;;;;;;;;4941894;28;20069;-75
2021/10/07 01:33:33;;;;;;;6.72;2.17;;;;;;;;;;4931410;29;20047;-75
2021/10/07 01:36:00;;;;;;;7.57;2.10;;;;;;;;;;4948813;29;20043;-75
2021/10/07 01:38:26;;;;;;;6.63;2.25;;;;;;;;;;4950830;28;20874;-74
2021/10/07 01:40:52;;;;;;;5.65;2.00;;;;;;;;;;4934243;29;20039;-75
2021/10/07 01:43:18;;;;;;;6.88;2.08;;;;;;;;;;4948556;28;20039;-74
2021/10/07 01:45:48;;;;;;;5.63;1.70;;;;;;;;;;4933983;29;20070;-74
2021/10/07 01:48:15;;;;;;;4.82;1.80;;;;;;;;;;4933809;29;20170;-75
2021/10/07 01:50:41;;;;;;;5.03;1.67;;;;;;;;;;4950138;28;20047;-75
2021/10/07 01:53:07;;;;;;;7.90;1.23;;;;;;;;;;4950967;29;20050;-74
2021/10/07 01:55:33;;;;;;;4.70;1.45;;;;;;;;;;4949258;28;20046;-74
2021/10/07 01:57:59;;;;;;;6.57;1.60;;;;;;;;;;4933241;29;20103;-74
2021/10/07 02:00:25;;;;;;;3.05;1.10;;;;;;;;;;4950869;28;20043;-75
2021/10/07 02:02:51;;;;;;;5.75;2.28;;;;;;;;;;4933240;29;20170;-75
2021/10/07 02:05:17;;;;;;;6.38;2.58;;;;;;;;;;4931426;29;20720;-74
2021/10/07 02:07:43;;;;;;;9.52;2.70;;;;;;;;;;4957227;28;20051;-75
2021/10/07 02:10:17;;;;;;;9.98;2.55;;;;;;;;;;4935513;29;20047;-74
2021/10/07 02:12:44;;;;;;;8.95;3.08;;;;;;;;;;4935152;28;20066;-74
2021/10/07 02:15:10;;;;;;;12.65;3.40;;;;;;;;;;4947054;28;20047;-75
2021/10/07 02:17:36;;;;;;;14.90;3.28;;;;;;;;;;4930402;29;20043;-74
2021/10/07 02:20:02;;;;;;;8.70;2.95;;;;;;;;;;4946052;28;20066;-75
2021/10/07 02:22:28;;;;;;;9.63;3.00;;;;;;;;;;4931237;29;20099;-75
2021/10/07 02:24:54;;;;;;;11.23;3.65;;;;;;;;;;4932163;29;20075;-74
2021/10/07 02:27:20;;;;;;;13.57;4.15;;;;;;;;;;4933863;29;20511;-75
2021/10/07 02:29:46;;;;;;;10.07;3.40;;;;;;;;;;4933727;29;20384;-74
2021/10/07 02:32:13;;;;;;;9.77;3.50;;;;;;;;;;4933157;29;20049;-74
2021/10/07 02:34:39;;;;;;;9.38;2.95;;;;;;;;;;4949305;29;20047;-75
2021/10/07 02:37:05;;;;;;;11.02;2.78;;;;;;;;;;4932568;28;20046;-75
2021/10/07 02:39:31;;;;;;;7.07;2.20;;;;;;;;;;4950797;29;20499;-74
2021/10/07 02:41:57;;;;;;;9.63;2.75;;;;;;;;;;4950498;29;20049;-74
2021/10/07 02:44:23;;;;;;;8.48;2.78;;;;;;;;;;4950686;29;20035;-74
2021/10/07 02:46:49;;;;;;;7.65;2.83;;;;;;;;;;4939876;29;20091;-75
2021/10/07 02:49:15;;;;;;;7.45;2.75;;;;;;;;;;4958704;28;20034;-74
2021/10/07 02:51:41;;;;;;;9.50;2.85;;;;;;;;;;4948965;28;20129;-75
2021/10/07 02:54:08;;;;;;;9.65;2.97;;;;;;;;;;4941848;29;20833;-75
2021/10/07 02:59:10;;;;;;;10.05;3.53;;;;;;;;;;4210223;26;20066;-74
2021/10/07 03:01:36;;;;;;;10.60;3.40;;;;;;;;;;4968862;28;20050;-74
2021/10/07 03:04:02;;;;;;;7.30;2.80;;;;;;;;;;4952290;28;20042;-74
2021/10/07 03:06:31;;;;;;;7.10;2.92;;;;;;;;;;4952284;28;20034;-75
2021/10/07 03:08:59;;;;;;;10.07;3.08;;;;;;;;;;4969453;28;20047;-75
2021/10/07 03:11:29;;;;;;;9.82;3.00;;;;;;;;;;4952040;28;20042;-74
2021/10/07 03:13:55;;;;;;;11.10;3.85;;;;;;;;;;4954264;28;20042;-75
2021/10/07 03:16:23;;;;;;;11.75;2.67;;;;;;;;;;4972591;28;20423;-74
2021/10/07 03:18:49;;;;;;;7.93;2.83;;;;;;;;;;4955070;28;20136;-75
2021/10/07 03:21:15;;;;;;;12.15;3.60;;;;;;;;;;4953598;28;20049;-74
2021/10/07 03:23:41;;;;;;;9.30;3.30;;;;;;;;;;4960097;28;20044;-75
2021/10/07 03:26:07;;;;;;;10.32;3.03;;;;;;;;;;4957487;28;20043;-75
2021/10/07 03:28:42;;;;;;;9.77;3.10;;;;;;;;;;4960658;28;20080;-75
2021/10/07 03:31:08;;;;;;;8.60;3.85;;;;;;;;;;4973260;28;20093;-75
2021/10/07 03:33:40;;;;;;;10.63;3.75;;;;;;;;;;4947647;28;20061;-75
2021/10/07 03:36:06;;;;;;;11.45;3.33;;;;;;;;;;4952480;29;20046;-75
2021/10/07 03:38:32;;;;;;;9.25;3.53;;;;;;;;;;4960291;28;20053;-75
2021/10/07 03:40:59;;;;;;;8.52;2.90;;;;;;;;;;4992919;28;20117;-74
2021/10/07 03:43:25;;;;;;;10.52;3.40;;;;;;;;;;4970755;28;20778;-75
2021/10/07 03:45:51;;;;;;;15.18;3.60;;;;;;;;;;4955493;28;20124;-75
2021/10/07 03:48:20;;;;;;;8.18;2.95;;;;;;;;;;4971424;28;20497;-74
2021/10/07 03:50:46;;;;;;;8.45;3.50;;;;;;;;;;4955279;28;20050;-75
2021/10/07 03:53:12;;;;;;;11.60;3.92;;;;;;;;;;4954861;28;20140;-74
2021/10/07 03:55:39;;;;;;;11.38;3.08;;;;;;;;;;4990227;28;20066;-75
2021/10/07 03:58:05;;;;;;;17.90;3.38;;;;;;;;;;4991784;28;20082;-74
2021/10/07 04:00:31;;;;;;;8.60;2.63;;;;;;;;;;4963817;28;20039;-74
2021/10/07 04:02:57;;;;;;;7.72;2.80;;;;;;;;;;4951575;29;20050;-75
2021/10/07 04:05:24;;;;;;;11.50;3.60;;;;;;;;;;4970130;28;20026;-75
2021/10/07 04:07:52;;;;;;;10.93;2.55;;;;;;;;;;4972328;28;20062;-74
2021/10/07 04:10:18;;;;;;;8.68;3.10;;;;;;;;;;4956208;28;20039;-74
2021/10/07 04:12:44;;;;;;;8.90;2.55;;;;;;;;;;4976190;28;20047;-74
2021/10/07 04:15:11;;;;;;;8.15;2.90;;;;;;;;;;4953448;28;20085;-74
2021/10/07 04:17:37;;;;;;;9.95;2.85;;;;;;;;;;4952151;29;20059;-75
2021/10/07 04:20:04;;;;;;;9.25;2.92;;;;;;;;;;4950906;28;20142;-75
2021/10/07 04:22:30;;;;;;;13.18;3.00;;;;;;;;;;4953172;29;20047;-75
2021/10/07 04:24:56;;;;;;;11.65;2.90;;;;;;;;;;4955286;28;20035;-75
2021/10/07 04:27:23;;;;;;;12.18;2.78;;;;;;;;;;4953814;28;20051;-75
2021/10/07 04:29:49;;;;;;;8.10;1.75;;;;;;;;;;4965018;28;20478;-75
2021/10/07 04:32:15;;;;;;;6.68;1.98;;;;;;;;;;4951505;29;20051;-74
2021/10/07 04:34:41;;;;;;;7.15;1.58;;;;;;;;;;4954417;28;20073;-75
2021/10/07 04:37:07;;;;;;;6.22;1.77;;;;;;;;;;4971743;28;20065;-75
2021/10/07 04:39:36;;;;;;;12.23;3.13;;;;;;;;;;4952288;28;20122;-74
2021/10/07 04:42:02;;;;;;;12.57;2.45;;;;;;;;;;4950677;29;20054;-75
2021/10/07 04:44:28;;;;;;;11.55;3.42;;;;;;;;;;4937736;28;20035;-74
2021/10/07 04:46:54;;;;;;;8.65;2.53;;;;;;;;;;4969739;28;20051;-75
2021/10/07 04:49:20;;;;;;;6.38;2.30;;;;;;;;;;4952699;29;20053;-75
2021/10/07 04:51:49;;;;;;;7.53;2.20;;;;;;;;;;4956091;28;20164;-74
2021/10/07 04:54:15;;;;;;;7.97;2.70;;;;;;;;;;4950540;29;20050;-75
2021/10/07 04:56:41;;;;;;;10.07;2.17;;;;;;;;;;4964892;28;20046;-75
2021/10/07 04:59:07;;;;;;;7.07;1.67;;;;;;;;;;4950175;28;20582;-75
2021/10/07 05:01:33;;;;;;;4.97;1.73;;;;;;;;;;4952933;28;20073;-74
2021/10/07 05:04:00;;;;;;;5.47;1.67;;;;;;;;;;4971187;28;20031;-75
2021/10/07 05:06:26;;;;;;;9.75;2.83;;;;;;;;;;4960356;28;20050;-75
2021/10/07 05:08:52;;;;;;;7.55;2.30;;;;;;;;;;4974392;28;20045;-74
2021/10/07 05:11:18;;;;;;;9.55;1.98;;;;;;;;;;4949797;29;20049;-75
2021/10/07 05:13:44;;;;;;;8.73;2.22;;;;;;;;;;4951926;29;20118;-74
2021/10/07 05:16:10;;;;;;;7.28;2.17;;;;;;;;;;4957406;28;20532;-74
2021/10/07 05:18:36;;;;;;;5.50;2.25;;;;;;;;;;4970911;28;20079;-74
2021/10/07 05:21:02;;;;;;;8.10;2.47;;;;;;;;;;4969959;28;20511;-75
2021/10/07 05:23:29;;;;;;;8.90;2.83;;;;;;;;;;4970478;28;20101;-75
2021/10/07 05:25:55;;;;;;;5.53;2.20;;;;;;;;;;4960607;28;20852;-75
2021/10/07 05:28:21;;;;;;;9.93;2.78;;;;;;;;;;4969576;28;20039;-75
2021/10/07 05:30:49;;;;;;;5.28;2.10;;;;;;;;;;4953488;28;20054;-74
2021/10/07 05:33:15;;;;;;;8.18;2.58;;;;;;;;;;4962167;28;20043;-75
2021/10/07 05:35:41;;;;;;;9.27;2.50;;;;;;;;;;4970116;28;20050;-74
2021/10/07 05:38:08;;;;;;;8.10;3.28;;;;;;;;;;4953247;28;20046;-75
2021/10/07 05:40:34;;;;;;;10.23;2.70;;;;;;;;;;4952676;28;20058;-74
2021/10/07 05:43:00;;;;;;;8.32;3.53;;;;;;;;;;4952717;28;20537;-76
2021/10/07 05:45:26;;;;;;;9.20;4.10;;;;;;;;;;4967690;28;20041;-76
2021/10/07 05:47:54;;;;;;;11.68;4.07;;;;;;;;;;4971774;28;20125;-77
2021/10/07 05:50:20;;;;;;;12.35;3.45;;;;;;;;;;4990087;28;20040;-77
2021/10/07 05:52:46;;;;;;;7.38;3.05;;;;;;;;;;4962169;28;20070;-77
2021/10/07 05:55:12;;;;;;;9.73;2.85;;;;;;;;;;4953061;28;20038;-77
2021/10/07 05:57:39;;;;;;;7.82;2.53;;;;;;;;;;4951989;28;20034;-76
2021/10/07 06:00:08;;;;;;;6.93;2.92;;;;;;;;;;4954701;28;20086;-76
2021/10/07 06:02:35;;;;;;;7.60;3.58;;;;;;;;;;4937881;28;20050;-76
2021/10/07 06:05:01;;;;;;;12.02;3.53;;;;;;;;;;4970219;28;20094;-76
2021/10/07 06:07:27;;;;;;;11.02;3.45;;;;;;;;;;4951863;28;20059;-76
2021/10/07 06:09:53;;;;;;;9.45;3.85;;;;;;;;;;4934457;29;20050;-77
2021/10/07 06:12:19;;;;;;;9.05;3.22;;;;;;;;;;4950647;28;20095;-77
2021/10/07 06:14:45;;;;;;;11.65;3.75;;;;;;;;;;4950246;28;20157;-76
2021/10/07 06:17:13;;;;;;;14.30;3.90;;;;;;;;;;4954131;28;20050;-76
2021/10/07 06:19:42;;;;;;;11.73;4.05;;;;;;;;;;4945509;28;20098;-77
2021/10/07 06:22:08;;;;;;;9.85;3.03;;;;;;;;;;4948950;28;20051;-77
2021/10/07 06:24:34;;;;;;;12.82;3.35;;;;;;;;;;4967365;28;20034;-76
2021/10/07 06:27:00;;;;;;;19.80;4.22;;;;;;;;;;4961286;28;20042;-76
2021/10/07 06:29:27;;;;;;;13.73;3.00;;;;;;;;;;4976660;28;20053;-76
2021/10/07 06:31:53;;;;;;;14.70;3.15;;;;;;;;;;4966505;28;20050;-76
2021/10/07 06:34:19;;;;;;;9.75;3.72;;;;;;;;;;4943010;29;20490;-77
2021/10/07 06:36:45;;;;;;;11.85;3.22;;;;;;;;;;4957963;28;20054;-76
2021/10/07 06:39:11;;;;;;;11.05;3.05;;;;;;;;;;4951161;28;20058;-77
2021/10/07 06:41:37;;;;;;;10.15;3.10;;;;;;;;;;4949958;28;20051;-76
2021/10/07 06:44:03;;;;;;;11.82;3.55;;;;;;;;;;4955300;28;20046;-76
2021/10/07 06:46:30;;;;;;;11.60;3.03;;;;;;;;;;4956456;28;20078;-77
2021/10/07 06:48:56;;;;;;;11.90;3.80;;;;;;;;;;4976690;28;20133;-76
2021/10/07 06:51:25;;;;;;;9.88;3.58;;;;;;;;;;4964267;28;20055;-76
2021/10/07 06:53:56;;;;;;;13.55;4.38;;;;;;;;;;4950816;28;20047;-77
2021/10/07 06:56:23;;;;;;;11.98;4.93;;;;;;;;;;4955033;28;20114;-77
2021/10/07 06:58:52;;;;;;;10.85;4.50;;;;;;;;;;4955644;28;20105;-76
2021/10/07 07:01:22;;;;;;;9.15;3.70;;;;;;;;;;4959456;28;20071;-76
2021/10/07 07:03:48;;;;;;;8.75;3.65;;;;;;;;;;4967218;28;20459;-77
2021/10/07 07:06:14;;;;;;;9.15;3.22;;;;;;;;;;4954992;28;20047;-76
2021/10/07 07:08:40;;;;;;;5.97;3.03;;;;;;;;;;4948205;28;20130;-77
2021/10/07 07:11:06;;;;;;;5.68;2.55;;;;;;;;;;4956122;28;20085;-76
2021/10/07 07:13:33;;;;;;;8.90;2.53;;;;;;;;;;4955229;28;20501;-77
2021/10/07 07:15:59;;;;;;;8.15;2.50;;;;;;;;;;4956636;28;20363;-77
2021/10/07 07:18:25;;;;;;;9.57;3.10;;;;;;;;;;4950258;28;20074;-76
2021/10/07 07:20:51;;;;;;;8.73;3.20;;;;;;;;;;4955977;28;20486;-77
2021/10/07 07:23:17;;;;;;;6.30;2.70;;;;;;;;;;4947591;28;20378;-77
2021/10/07 07:25:43;;;;;;;8.63;2.85;;;;;;;;;;4971978;28;20046;-77
2021/10/07 07:28:10;;;;;;;12.27;4.57;;;;;;;;;;4973354;28;20045;-76
2021/10/07 07:30:36;;;;;;;17.05;4.55;;;;;;;;;;4954912;28;20081;-77
2021/10/07 07:33:02;;;;;;;9.68;4.00;;;;;;;;;;4961572;28;20110;-77
2021/10/07 07:35:32;;;;;;;10.85;4.90;;;;;;;;;;4945760;28;20166;-77
2021/10/07 07:37:58;;;;;;;11.52;3.40;;;;;;;;;;4980303;28;20402;-76
2021/10/07 07:40:25;;;;;;;7.97;3.67;;;;;;;;;;4947923;28;20035;-77
2021/10/07 07:42:51;;;;;;;15.38;4.07;;;;;;;;;;4978269;28;20382;-76
2021/10/07 07:45:17;;;;;;;11.93;4.05;;;;;;;;;;4978194;28;20039;-76
2021/10/07 07:47:45;;;;;;;10.82;4.10;;;;;;;;;;4989021;28;20185;-77
2021/10/07 07:50:11;;;;;;;13.00;3.10;;;;;;;;;;4945158;29;20051;-76
2021/10/07 07:52:37;;;;;;;10.85;3.17;;;;;;;;;;4952291;28;20437;-77
2021/10/07 07:55:04;;;;;;;9.02;3.53;;;;;;;;;;4953913;28;20046;-76
2021/10/07 07:57:30;;;;;;;9.02;3.05;;;;;;;;;;4964694;28;20047;-77
2021/10/07 07:59:56;;;;;;;6.72;2.85;;;;;;;;;;4951226;28;20787;-77
2021/10/07 08:02:22;;;;;;;11.98;2.20;;;;;;;;;;4944891;28;20072;-77
2021/10/07 08:04:49;;;;;;;10.73;2.10;;;;;;;;;;4968758;28;20695;-77
2021/10/07 08:07:15;;;;;;;6.47;2.53;;;;;;;;;;4946653;28;20239;-76
2021/10/07 08:09:44;;;;;;;15.57;2.92;;;;;;;;;;4954083;28;20050;-76
2021/10/07 08:12:13;;;;;;;8.40;2.60;;;;;;;;;;4963384;28;20051;-77
2021/10/07 08:14:42;;;;;;;8.13;2.50;;;;;;;;;;4971753;28;20896;-77
2021/10/07 08:17:08;;;;;;;8.02;1.95;;;;;;;;;;4960969;28;20051;-76
2021/10/07 08:19:34;;;;;;;6.90;2.03;;;;;;;;;;4969693;28;20394;-76
2021/10/07 08:22:01;;;;;;;8.20;2.50;;;;;;;;;;4978869;28;20070;-77
2021/10/07 08:24:27;;;;;;;5.60;2.40;;;;;;;;;;4977035;28;20592;-76
2021/10/07 08:26:55;;;;;;;7.90;2.13;;;;;;;;;;4974834;28;20062;-76
2021/10/07 08:29:21;;;;;;;9.07;2.63;;;;;;;;;;4954032;28;20039;-77
2021/10/07 08:31:47;;;;;;;7.00;1.88;;;;;;;;;;4956569;28;20186;-77
2021/10/07 08:34:14;;;;;;;8.70;2.00;;;;;;;;;;4974847;28;20066;-77
2021/10/07 08:36:43;;;;;;;5.72;1.80;;;;;;;;;;4952618;28;20046;-77
2021/10/07 08:39:10;;;;;;;6.47;1.90;;;;;;;;;;4972870;28;20631;-76
2021/10/07 08:41:37;;;;;;;6.68;1.95;;;;;;;;;;4950629;28;20047;-76
2021/10/07 08:44:03;;;;;;;5.65;1.30;;;;;;;;;;4967936;28;20035;-77
2021/10/07 08:46:29;;;;;;;6.05;1.50;;;;;;;;;;4979498;28;20061;-77
2021/10/07 08:48:56;;;;;;;5.95;1.40;;;;;;;;;;4941109;28;20054;-77
2021/10/07 08:51:22;;;;;;;7.55;1.20;;;;;;;;;;4968574;28;20170;-77
2021/10/07 08:53:49;;;;;;;4.45;1.15;;;;;;;;;;4966021;28;20039;-77
2021/10/07 08:56:17;;;;;;;6.88;1.38;;;;;;;;;;4953201;28;20085;-76
2021/10/07 08:58:43;;;;;;;9.80;1.40;;;;;;;;;;4952248;28;20042;-77
2021/10/07 09:01:29;;;;;;;5.65;1.50;;;;;;;;;;4944243;28;20090;-77
2021/10/07 09:03:55;;;;;;;7.32;2.20;;;;;;;;;;4937034;29;20027;-77
2021/10/07 09:06:21;;;;;;;6.85;1.38;;;;;;;;;;4975439;28;20085;-77
2021/10/07 09:08:49;;;;;;;5.03;1.00;;;;;;;;;;4960779;28;20051;-77
2021/10/07 09:11:28;;;;;;;5.25;1.27;;;;;;;;;;4952472;28;20057;-77
2021/10/07 09:14:05;;;;;;;8.73;1.58;;;;;;;;;;4970605;28;20071;-77
2021/10/07 09:16:42;;;;;;;7.53;1.15;;;;;;;;;;4962275;28;20051;-77
2021/10/07 09:19:14;;;;;;;6.22;1.00;;;;;;;;;;4968006;28;20118;-76
2021/10/07 09:21:40;;;;;;;;;;;;;;;;;;4977011;28;20458;-77
2021/10/07 09:24:25;;;;;;;9.95;1.60;;;;;;;;;;4946601;28;19917;-77
2021/10/07 09:26:51;;;;;;;6.20;1.33;;;;;;;;;;4972744;28;20101;-77
2021/10/07 09:29:17;;;;;;;6.90;1.05;;;;;;;;;;4961793;28;20478;-77
2021/10/07 09:31:43;;;;;;;3.10;0.90;;;;;;;;;;4969609;28;20046;-77
2021/10/07 09:34:10;;;;;;;3.08;0.60;;;;;;;;;;4964723;28;20431;-76
2021/10/07 09:36:36;;;;;;;5.75;0.75;;;;;;;;;;4961853;28;20062;-76
2021/10/07 09:39:03;;;;;;;4.60;0.90;;;;;;;;;;4958135;28;20530;-76
2021/10/07 09:41:32;;;;;;;3.17;0.80;;;;;;;;;;4947988;28;20043;-76
2021/10/07 09:44:00;;;;;;;5.10;1.00;;;;;;;;;;4950690;28;20035;-77
2021/10/07 09:46:45;;;;;;;5.40;0.88;;;;;;;;;;4951775;28;20720;-76
2021/10/07 09:49:12;;;;;;;6.40;1.15;;;;;;;;;;4963924;28;20035;-76
2021/10/07 09:51:53;;;;;;;5.30;0.80;;;;;;;;;;4979170;28;20699;-77
2021/10/07 09:54:24;;;;;;;6.32;0.70;;;;;;;;;;4969192;28;20070;-77
2021/10/07 09:57:01;;;;;;;11.68;1.75;;;;;;;;;;4952375;28;20078;-77
2021/10/07 09:59:29;;;;;;;3.65;0.68;;;;;;;;;;4967780;28;20062;-77
2021/10/07 10:01:56;;;;;;;3.10;0.85;;;;;;;;;;4953216;28;20034;-76
2021/10/07 10:04:22;;;;;;;4.00;0.77;;;;;;;;;;4961975;28;20039;-77
2021/10/07 10:06:48;;;;;;;5.82;0.65;;;;;;;;;;4970419;28;20050;-76
2021/10/07 10:09:14;;;;;;;2.90;0.55;;;;;;;;;;4975993;28;20042;-76
2021/10/07 10:11:43;;;;;;;4.63;0.70;;;;;;;;;;4972967;28;20045;-76
2021/10/07 10:14:09;;;;;;;7.18;0.63;;;;;;;;;;4971509;28;20039;-76
2021/10/07 10:16:39;;;;;;;3.95;1.00;;;;;;;;;;4970268;28;20048;-76
2021/10/07 10:19:06;;;;;;;3.30;0.70;;;;;;;;;;4954248;28;20494;-76
2021/10/07 10:21:34;;;;;;;3.30;0.50;;;;;;;;;;4946748;28;20146;-76
2021/10/07 10:24:03;;;;;;;2.75;0.50;;;;;;;;;;4948895;28;20039;-76
2021/10/07 10:26:29;;;;;;;5.35;0.50;;;;;;;;;;4964836;28;20046;-76
2021/10/07 10:28:56;;;;;;;3.47;0.50;;;;;;;;;;4971860;28;20046;-76
2021/10/07 10:31:33;;;;;;;4.13;0.55;;;;;;;;;;4961891;28;20050;-76
2021/10/07 10:34:13;;;;;;;4.35;0.50;;;;;;;;;;4981642;28;20038;-76
2021/10/07 10:36:39;;;;;;;6.40;0.50;;;;;;;;;;4968014;28;20401;-76
2021/10/07 10:39:10;;;;;;;2.60;0.40;;;;;;;;;;4964780;28;20043;-76
2021/10/07 10:42:02;;;;;;;2.77;0.47;;;;;;;;;;4963837;28;20500;-77
2021/10/07 10:44:28;;;;;;;3.50;0.73;;;;;;;;;;4970342;28;20085;-76
2021/10/07 10:47:01;;;;;;;3.35;0.30;;;;;;;;;;4966495;28;20051;-76
2021/10/07 10:49:37;;;;;;;1.40;0.35;;;;;;;;;;4969438;28;20833;-76
2021/10/07 10:52:16;;;;;;;2.47;0.50;;;;;;;;;;4967087;28;20058;-76
2021/10/07 10:54:43;;;;;;;2.00;0.40;;;;;;;;;;4954466;28;20066;-76
2021/10/07 10:57:24;;;;;;;2.95;0.50;;;;;;;;;;4948157;28;20134;-76
2021/10/07 11:00:02;;;;;;;1.60;0.30;;;;;;;;;;4968547;28;20047;-76
2021/10/07 11:02:28;;;;;;;1.90;0.25;;;;;;;;;;4950416;28;20054;-76
2021/10/07 11:04:55;;;;;;;1.45;0.20;;;;;;;;;;4972500;28;20030;-76
2021/10/07 11:07:23;;;;;;;1.00;0.20;;;;;;;;;;4965596;28;20047;-76
2021/10/07 11:09:57;;;;;;;1.40;0.38;;;;;;;;;;4972128;28;20114;-76
2021/10/07 11:12:24;;;;;;;2.42;0.30;;;;;;;;;;4968238;28;20050;-76
2021/10/07 11:14:53;;;;;;;2.47;0.50;;;;;;;;;;4972157;28;20039;-76
2021/10/07 11:17:20;;;;;;;2.10;0.30;;;;;;;;;;4944001;28;20142;-76
2021/10/07 11:19:46;;;;;;;1.67;0.30;;;;;;;;;;4952183;28;20042;-76
2021/10/07 11:22:12;;;;;;;1.85;0.30;;;;;;;;;;4951697;28;20039;-76
2021/10/07 11:24:49;;;;;;;0.65;0.25;;;;;;;;;;4974919;28;20062;-76
2021/10/07 11:27:15;;;;;;;2.08;0.40;;;;;;;;;;4969124;28;20542;-76
2021/10/07 11:29:41;;;;;;;1.45;0.30;;;;;;;;;;4958091;28;20042;-76
2021/10/07 11:32:07;;;;;;;2.22;0.22;;;;;;;;;;4954117;28;20055;-76
2021/10/07 11:34:33;;;;;;;3.60;0.40;;;;;;;;;;4948846;28;20399;-76
2021/10/07 11:36:59;;;;;;;2.45;0.22;;;;;;;;;;4950975;28;20053;-76
2021/10/07 11:39:25;;;;;;;0.82;0.10;;;;;;;;;;4956843;28;20033;-76
2021/10/07 11:41:51;;;;;;;2.60;0.20;;;;;;;;;;4972274;28;20043;-76
2021/10/07 11:44:17;;;;;;;0.77;0.25;;;;;;;;;;4969108;28;20039;-76
2021/10/07 11:46:43;;;;;;;2.65;0.20;;;;;;;;;;4965489;28;20098;-76
2021/10/07 11:49:11;;;;;;;2.15;0.30;;;;;;;;;;4966547;28;20116;-76
2021/10/07 11:51:39;;;;;;;1.38;0.25;;;;;;;;;;4953982;28;20051;-76
2021/10/07 11:54:05;;;;;;;1.20;0.17;;;;;;;;;;4953641;28;20045;-76
2021/10/07 11:56:32;;;;;;;1.95;0.20;;;;;;;;;;4965395;28;20082;-76
2021/10/07 11:59:00;;;;;;;3.63;0.40;;;;;;;;;;4974753;28;20058;-76
2021/10/07 12:01:29;;;;;;;5.07;0.63;;;;;;;;;;4966443;28;20042;-76
2021/10/07 12:03:56;;;;;;;1.80;0.20;;;;;;;;;;4972326;28;20038;-76
2021/10/07 12:06:23;;;;;;;1.60;0.17;;;;;;;;;;4964444;28;20043;-76
2021/10/07 12:08:49;;;;;;;2.30;0.30;;;;;;;;;;4962895;28;20045;-76
2021/10/07 12:11:17;;;;;;;1.80;0.30;;;;;;;;;;4979630;28;20053;-76
2021/10/07 12:13:47;;;;;;;1.67;0.20;;;;;;;;;;4971439;28;20044;-76
2021/10/07 12:16:14;;;;;;;2.72;0.20;;;;;;;;;;4976692;28;20508;-76
2021/10/07 12:18:49;;;;;;;1.52;0.30;;;;;;;;;;4973269;28;20042;-76
2021/10/07 12:21:19;;;;;;;5.00;0.40;;;;;;;;;;4964545;28;20458;-76
2021/10/07 12:23:54;;;;;;;3.08;0.35;;;;;;;;;;4951430;28;20032;-76
2021/10/07 12:26:23;;;;;;;1.38;0.40;;;;;;;;;;4965010;28;20482;-76
2021/10/07 12:28:53;;;;;;;3.10;0.40;;;;;;;;;;4971955;28;20046;-76
2021/10/07 12:31:20;;;;;;;0.63;0.20;;;;;;;;;;4968969;28;20129;-76
2021/10/07 12:33:53;;;;;;;1.92;0.22;;;;;;;;;;4969626;28;20046;-76
2021/10/07 12:36:19;;;;;;;1.90;0.40;;;;;;;;;;4973193;28;20137;-76
2021/10/07 12:38:50;;;;;;;4.63;0.52;;;;;;;;;;4983321;28;20061;-76
2021/10/07 12:41:16;;;;;;;4.65;0.40;;;;;;;;;;4950141;28;20809;-76
2021/10/07 12:43:52;;;;;;;1.63;0.35;;;;;;;;;;4979240;28;20532;-76
2021/10/07 12:46:20;;;;;;;3.28;0.35;;;;;;;;;;4951511;28;20042;-76
2021/10/07 12:48:49;;;;;;;4.70;0.20;;;;;;;;;;4960461;28;20117;-76
2021/10/07 12:51:15;;;;;;;2.38;0.57;;;;;;;;;;4949089;28;20055;-76
2021/10/07 12:53:42;;;;;;;5.82;0.50;;;;;;;;;;4949712;28;20035;-76
2021/10/07 12:56:16;;;;;;;3.42;0.20;;;;;;;;;;4983886;28;20138;-76
2021/10/07 12:58:46;;;;;;;2.35;0.40;;;;;;;;;;4955471;28;20130;-76
2021/10/07 13:01:16;;;;;;;1.67;0.20;;;;;;;;;;4965922;28;20047;-76
2021/10/07 13:03:42;;;;;;;2.55;0.30;;;;;;;;;;4942090;28;20030;-76
2021/10/07 13:06:09;;;;;;;0.88;0.28;;;;;;;;;;4946762;28;20043;-76
2021/10/07 13:08:36;;;;;;;2.60;0.30;;;;;;;;;;4948592;28;20081;-76
2021/10/07 13:11:02;;;;;;;1.60;0.30;;;;;;;;;;4953660;28;20054;-76
2021/10/07 13:13:28;;;;;;;1.90;0.30;;;;;;;;;;4965605;28;20070;-76
2021/10/07 13:15:54;;;;;;;2.15;0.10;;;;;;;;;;4949102;28;20046;-76
2021/10/07 13:18:20;;;;;;;1.65;0.45;;;;;;;;;;4949535;28;20038;-76
2021/10/07 13:20:47;;;;;;;1.40;0.10;;;;;;;;;;4951473;28;20138;-76
2021/10/07 13:23:13;;;;;;;4.00;0.40;;;;;;;;;;4963059;28;20030;-76
2021/10/07 13:25:44;;;;;;;5.03;0.20;;;;;;;;;;4956246;28;20054;-76
2021/10/07 13:28:10;;;;;;;1.98;0.22;;;;;;;;;;4950386;28;20039;-76
2021/10/07 13:30:36;;;;;;;1.85;0.20;;;;;;;;;;4956761;28;20154;-76
2021/10/07 13:33:03;;;;;;;2.50;0.43;;;;;;;;;;4943097;28;20042;-76
2021/10/07 13:35:31;;;;;;;1.45;0.28;;;;;;;;;;4961455;28;20047;-76
2021/10/07 13:37:57;;;;;;;2.80;0.30;;;;;;;;;;4968571;28;20042;-76
2021/10/07 13:40:24;;;;;;;1.60;0.20;;;;;;;;;;4963977;28;20038;-76
2021/10/07 13:42:50;;;;;;;2.75;0.50;;;;;;;;;;4948667;28;20121;-76
2021/10/07 13:45:18;;;;;;;1.08;0.25;;;;;;;;;;4947257;28;20051;-76
2021/10/07 13:47:47;;;;;;;3.17;0.35;;;;;;;;;;4942854;28;20049;-76
2021/10/07 13:50:13;;;;;;;0.32;0.10;;;;;;;;;;4961726;28;20482;-75
2021/10/07 13:52:39;;;;;;;4.93;0.40;;;;;;;;;;4946931;28;20497;-76
2021/10/07 13:55:05;;;;;;;3.38;0.52;;;;;;;;;;4964802;28;20046;-76
2021/10/07 13:57:32;;;;;;;3.28;0.70;;;;;;;;;;4946730;28;20397;-76
2021/10/07 13:59:58;;;;;;;1.02;0.20;;;;;;;;;;4960172;28;20051;-76
2021/10/07 14:02:24;;;;;;;1.73;0.25;;;;;;;;;;4939627;28;20086;-76
2021/10/07 14:04:50;;;;;;;3.92;0.40;;;;;;;;;;4957016;28;20491;-76
2021/10/07 14:07:16;;;;;;;4.20;0.40;;;;;;;;;;4937650;28;20134;-76
2021/10/07 14:09:43;;;;;;;3.60;0.40;;;;;;;;;;4967503;28;20039;-76
2021/10/07 14:12:09;;;;;;;3.80;0.40;;;;;;;;;;4972431;28;20047;-76
2021/10/07 14:14:35;;;;;;;4.18;0.40;;;;;;;;;;4945438;28;20213;-76
2021/10/07 14:17:01;;;;;;;3.28;0.47;;;;;;;;;;4964230;28;20058;-76
2021/10/07 14:19:27;;;;;;;5.10;0.50;;;;;;;;;;4947893;28;20034;-76
2021/10/07 14:21:55;;;;;;;4.30;0.57;;;;;;;;;;4975029;28;20043;-76
2021/10/07 14:24:21;;;;;;;2.10;0.30;;;;;;;;;;4975614;28;20754;-76
2021/10/07 14:26:47;;;;;;;3.63;0.40;;;;;;;;;;4975485;28;20051;-76
2021/10/07 14:29:13;;;;;;;1.10;0.30;;;;;;;;;;4945958;28;20039;-76
2021/10/07 14:31:40;;;;;;;1.40;0.25;;;;;;;;;;4967687;28;20071;-76
2021/10/07 14:34:07;;;;;;;2.60;0.40;;;;;;;;;;4949166;28;20046;-76
2021/10/07 14:36:34;;;;;;;2.58;0.22;;;;;;;;;;4961689;28;20474;-76
2021/10/07 14:39:01;;;;;;;3.53;0.40;;;;;;;;;;4953671;28;20041;-76
2021/10/07 14:41:27;;;;;;;3.67;0.77;;;;;;;;;;4966377;28;20058;-76
2021/10/07 14:43:54;;;;;;;3.38;0.50;;;;;;;;;;4951257;28;20054;-76
2021/10/07 14:46:23;;;;;;;2.15;0.45;;;;;;;;;;4958378;28;20066;-76